< < Back
Terminal Aerodrome Forecast


Current Version              Previous Versions:   1  2  3  4  5  6  7  8  9  

Terminal Aerodrome Forecast

234
FTUS42 KILM 291120
TAFILM
TAF
KILM 291120Z 2912/3012 35008KT P6SM SKC
     FM292000 26006KT P6SM FEW250
     FM300000 VRB03KT P6SM FEW150 SCT250=

Latest METAR

913
SAUS70 KWBC 301300 RRE
MTRILM
METAR KILM 301253Z AUTO 22011KT 10SM BKN110 11/04 A3016 RMK AO2 SLP214
T01110044


USA.gov is the U.S. government's official web portal to all federal, state and local government web resources and services.